sensor_id;sensor_type;location;lat;lon;timestamp;P1;durP1;ratioP1;P2;durP2;ratioP2
9836;SDS011;4957;51.412;6.724;2023-04-24T00:00:03;0.90;;;0.87;;
9836;SDS011;4957;51.412;6.724;2023-04-24T00:02:38;1.33;;;0.70;;
9836;SDS011;4957;51.412;6.724;2023-04-24T00:05:07;0.90;;;0.80;;
9836;SDS011;4957;51.412;6.724;2023-04-24T00:07:33;0.67;;;0.67;;
9836;SDS011;4957;51.412;6.724;2023-04-24T00:09:59;2.20;;;0.90;;
9836;SDS011;4957;51.412;6.724;2023-04-24T00:12:25;6.00;;;1.33;;
9836;SDS011;4957;51.412;6.724;2023-04-24T00:14:51;1.30;;;1.20;;
9836;SDS011;4957;51.412;6.724;2023-04-24T00:17:17;2.73;;;1.10;;
9836;SDS011;4957;51.412;6.724;2023-04-24T00:19:46;1.70;;;1.13;;
9836;SDS011;4957;51.412;6.724;2023-04-24T00:22:12;1.17;;;1.07;;
9836;SDS011;4957;51.412;6.724;2023-04-24T00:24:39;3.50;;;1.17;;
9836;SDS011;4957;51.412;6.724;2023-04-24T00:27:05;1.00;;;0.90;;
9836;SDS011;4957;51.412;6.724;2023-04-24T00:29:31;2.13;;;1.17;;
9836;SDS011;4957;51.412;6.724;2023-04-24T00:31:57;2.47;;;1.60;;
9836;SDS011;4957;51.412;6.724;2023-04-24T00:34:22;2.30;;;1.77;;
9836;SDS011;4957;51.412;6.724;2023-04-24T00:36:48;2.47;;;2.20;;
9836;SDS011;4957;51.412;6.724;2023-04-24T00:39:17;3.10;;;2.23;;
9836;SDS011;4957;51.412;6.724;2023-04-24T00:41:47;7.30;;;3.37;;
9836;SDS011;4957;51.412;6.724;2023-04-24T00:44:13;3.73;;;3.20;;
9836;SDS011;4957;51.412;6.724;2023-04-24T00:46:40;6.00;;;3.93;;
9836;SDS011;4957;51.412;6.724;2023-04-24T00:49:07;5.67;;;3.03;;
9836;SDS011;4957;51.412;6.724;2023-04-24T00:51:32;3.63;;;2.93;;
9836;SDS011;4957;51.412;6.724;2023-04-24T00:53:59;2.80;;;2.47;;
9836;SDS011;4957;51.412;6.724;2023-04-24T00:56:26;3.53;;;2.87;;
9836;SDS011;4957;51.412;6.724;2023-04-24T00:58:54;4.30;;;2.90;;
9836;SDS011;4957;51.412;6.724;2023-04-24T01:01:20;3.77;;;3.37;;
9836;SDS011;4957;51.412;6.724;2023-04-24T01:03:47;3.57;;;3.10;;
9836;SDS011;4957;51.412;6.724;2023-04-24T01:06:15;7.07;;;3.57;;
9836;SDS011;4957;51.412;6.724;2023-04-24T01:08:41;4.43;;;3.30;;
9836;SDS011;4957;51.412;6.724;2023-04-24T01:11:08;7.27;;;3.67;;
9836;SDS011;4957;51.412;6.724;2023-04-24T01:13:34;4.47;;;3.90;;
9836;SDS011;4957;51.412;6.724;2023-04-24T01:16:00;6.87;;;3.27;;
9836;SDS011;4957;51.412;6.724;2023-04-24T01:18:26;4.30;;;3.40;;
9836;SDS011;4957;51.412;6.724;2023-04-24T01:20:53;5.70;;;3.20;;
9836;SDS011;4957;51.412;6.724;2023-04-24T01:23:22;3.60;;;3.00;;
9836;SDS011;4957;51.412;6.724;2023-04-24T01:25:49;4.47;;;3.63;;
9836;SDS011;4957;51.412;6.724;2023-04-24T01:28:15;6.37;;;4.27;;
9836;SDS011;4957;51.412;6.724;2023-04-24T01:30:41;4.47;;;3.90;;
9836;SDS011;4957;51.412;6.724;2023-04-24T01:33:08;6.43;;;4.63;;
9836;SDS011;4957;51.412;6.724;2023-04-24T01:35:34;5.43;;;3.80;;
9836;SDS011;4957;51.412;6.724;2023-04-24T01:38:01;4.40;;;4.00;;
9836;SDS011;4957;51.412;6.724;2023-04-24T01:40:27;5.33;;;4.30;;
9836;SDS011;4957;51.412;6.724;2023-04-24T01:42:52;3.80;;;3.40;;
9836;SDS011;4957;51.412;6.724;2023-04-24T01:45:18;5.17;;;4.07;;
9836;SDS011;4957;51.412;6.724;2023-04-24T01:47:45;4.53;;;4.00;;
9836;SDS011;4957;51.412;6.724;2023-04-24T01:50:11;10.50;;;4.30;;
9836;SDS011;4957;51.412;6.724;2023-04-24T01:52:37;5.90;;;4.07;;
9836;SDS011;4957;51.412;6.724;2023-04-24T01:55:03;5.23;;;3.77;;
9836;SDS011;4957;51.412;6.724;2023-04-24T01:57:32;11.13;;;4.30;;
9836;SDS011;4957;51.412;6.724;2023-04-24T01:59:58;5.20;;;4.23;;
9836;SDS011;4957;51.412;6.724;2023-04-24T02:02:24;7.83;;;4.87;;
9836;SDS011;4957;51.412;6.724;2023-04-24T02:04:52;5.47;;;4.40;;
9836;SDS011;4957;51.412;6.724;2023-04-24T02:07:19;9.37;;;5.13;;
9836;SDS011;4957;51.412;6.724;2023-04-24T02:09:44;8.37;;;4.90;;
9836;SDS011;4957;51.412;6.724;2023-04-24T02:12:10;6.60;;;4.80;;
9836;SDS011;4957;51.412;6.724;2023-04-24T02:14:36;6.73;;;5.00;;
9836;SDS011;4957;51.412;6.724;2023-04-24T02:17:02;8.00;;;5.07;;
9836;SDS011;4957;51.412;6.724;2023-04-24T02:19:27;6.63;;;5.77;;
9836;SDS011;4957;51.412;6.724;2023-04-24T02:21:54;9.27;;;5.80;;
9836;SDS011;4957;51.412;6.724;2023-04-24T02:24:20;8.33;;;6.40;;
9836;SDS011;4957;51.412;6.724;2023-04-24T02:26:46;9.60;;;6.30;;
9836;SDS011;4957;51.412;6.724;2023-04-24T02:29:11;11.33;;;6.07;;
9836;SDS011;4957;51.412;6.724;2023-04-24T02:31:37;7.97;;;6.30;;
9836;SDS011;4957;51.412;6.724;2023-04-24T02:34:03;9.30;;;6.13;;
9836;SDS011;4957;51.412;6.724;2023-04-24T02:36:29;12.17;;;7.00;;
9836;SDS011;4957;51.412;6.724;2023-04-24T02:38:55;13.57;;;7.37;;
9836;SDS011;4957;51.412;6.724;2023-04-24T02:41:20;11.07;;;6.97;;
9836;SDS011;4957;51.412;6.724;2023-04-24T02:43:46;12.73;;;7.10;;
9836;SDS011;4957;51.412;6.724;2023-04-24T02:46:12;14.67;;;7.73;;
9836;SDS011;4957;51.412;6.724;2023-04-24T02:48:37;10.87;;;6.57;;
9836;SDS011;4957;51.412;6.724;2023-04-24T02:51:03;12.27;;;7.13;;
9836;SDS011;4957;51.412;6.724;2023-04-24T02:53:29;11.00;;;7.87;;
9836;SDS011;4957;51.412;6.724;2023-04-24T02:55:55;14.17;;;7.87;;
9836;SDS011;4957;51.412;6.724;2023-04-24T02:58:21;15.20;;;7.70;;
9836;SDS011;4957;51.412;6.724;2023-04-24T03:00:47;12.97;;;8.27;;
9836;SDS011;4957;51.412;6.724;2023-04-24T03:03:13;14.77;;;7.97;;
9836;SDS011;4957;51.412;6.724;2023-04-24T03:05:40;13.20;;;8.00;;
9836;SDS011;4957;51.412;6.724;2023-04-24T03:08:05;13.43;;;7.77;;
9836;SDS011;4957;51.412;6.724;2023-04-24T03:10:31;13.67;;;8.43;;
9836;SDS011;4957;51.412;6.724;2023-04-24T03:12:57;20.43;;;8.53;;
9836;SDS011;4957;51.412;6.724;2023-04-24T03:15:22;12.50;;;8.30;;
9836;SDS011;4957;51.412;6.724;2023-04-24T03:17:48;14.73;;;9.43;;
9836;SDS011;4957;51.412;6.724;2023-04-24T03:20:14;17.20;;;9.23;;
9836;SDS011;4957;51.412;6.724;2023-04-24T03:22:40;13.70;;;8.00;;
9836;SDS011;4957;51.412;6.724;2023-04-24T03:25:06;16.27;;;9.07;;
9836;SDS011;4957;51.412;6.724;2023-04-24T03:27:34;15.67;;;9.03;;
9836;SDS011;4957;51.412;6.724;2023-04-24T03:29:59;14.37;;;8.47;;
9836;SDS011;4957;51.412;6.724;2023-04-24T03:32:25;21.90;;;8.53;;
9836;SDS011;4957;51.412;6.724;2023-04-24T03:34:51;10.73;;;8.17;;
9836;SDS011;4957;51.412;6.724;2023-04-24T03:37:17;13.37;;;9.10;;
9836;SDS011;4957;51.412;6.724;2023-04-24T03:39:43;17.93;;;9.07;;
9836;SDS011;4957;51.412;6.724;2023-04-24T03:42:08;14.17;;;8.00;;
9836;SDS011;4957;51.412;6.724;2023-04-24T03:44:34;13.10;;;8.07;;
9836;SDS011;4957;51.412;6.724;2023-04-24T03:47:00;14.23;;;8.50;;
9836;SDS011;4957;51.412;6.724;2023-04-24T03:49:26;17.07;;;9.50;;
9836;SDS011;4957;51.412;6.724;2023-04-24T03:51:52;11.03;;;8.10;;
9836;SDS011;4957;51.412;6.724;2023-04-24T03:54:18;12.00;;;8.00;;
9836;SDS011;4957;51.412;6.724;2023-04-24T03:56:45;13.37;;;8.77;;
9836;SDS011;4957;51.412;6.724;2023-04-24T03:59:10;18.17;;;9.07;;
9836;SDS011;4957;51.412;6.724;2023-04-24T04:01:36;12.63;;;8.37;;
9836;SDS011;4957;51.412;6.724;2023-04-24T04:04:05;11.97;;;8.17;;
9836;SDS011;4957;51.412;6.724;2023-04-24T04:06:31;13.13;;;7.80;;
9836;SDS011;4957;51.412;6.724;2023-04-24T04:08:57;13.30;;;8.80;;
9836;SDS011;4957;51.412;6.724;2023-04-24T04:11:23;15.67;;;9.17;;
9836;SDS011;4957;51.412;6.724;2023-04-24T04:13:49;14.37;;;8.80;;
9836;SDS011;4957;51.412;6.724;2023-04-24T04:16:15;14.67;;;8.00;;
9836;SDS011;4957;51.412;6.724;2023-04-24T04:18:42;14.13;;;8.17;;
9836;SDS011;4957;51.412;6.724;2023-04-24T04:21:08;14.53;;;8.20;;
9836;SDS011;4957;51.412;6.724;2023-04-24T04:23:34;13.87;;;8.90;;
9836;SDS011;4957;51.412;6.724;2023-04-24T04:26:00;13.17;;;7.90;;
9836;SDS011;4957;51.412;6.724;2023-04-24T04:28:26;15.70;;;7.77;;
9836;SDS011;4957;51.412;6.724;2023-04-24T04:30:52;16.83;;;7.93;;
9836;SDS011;4957;51.412;6.724;2023-04-24T04:33:19;16.23;;;8.67;;
9836;SDS011;4957;51.412;6.724;2023-04-24T04:35:45;11.77;;;7.40;;
9836;SDS011;4957;51.412;6.724;2023-04-24T04:38:14;11.13;;;7.27;;
9836;SDS011;4957;51.412;6.724;2023-04-24T04:40:40;13.00;;;7.67;;
9836;SDS011;4957;51.412;6.724;2023-04-24T04:43:06;9.53;;;7.17;;
9836;SDS011;4957;51.412;6.724;2023-04-24T04:45:32;12.73;;;8.03;;
9836;SDS011;4957;51.412;6.724;2023-04-24T04:47:58;10.73;;;6.73;;
9836;SDS011;4957;51.412;6.724;2023-04-24T04:50:25;13.57;;;7.00;;
9836;SDS011;4957;51.412;6.724;2023-04-24T04:52:51;12.17;;;6.67;;
9836;SDS011;4957;51.412;6.724;2023-04-24T04:55:17;10.90;;;7.07;;
9836;SDS011;4957;51.412;6.724;2023-04-24T04:57:45;10.13;;;6.83;;
9836;SDS011;4957;51.412;6.724;2023-04-24T05:00:11;13.17;;;7.07;;
9836;SDS011;4957;51.412;6.724;2023-04-24T05:02:38;10.93;;;6.27;;
9836;SDS011;4957;51.412;6.724;2023-04-24T05:05:04;9.50;;;6.60;;
9836;SDS011;4957;51.412;6.724;2023-04-24T05:07:31;10.97;;;6.70;;
9836;SDS011;4957;51.412;6.724;2023-04-24T05:09:57;9.93;;;6.73;;
9836;SDS011;4957;51.412;6.724;2023-04-24T05:12:22;10.13;;;6.50;;
9836;SDS011;4957;51.412;6.724;2023-04-24T05:14:48;8.93;;;6.13;;
9836;SDS011;4957;51.412;6.724;2023-04-24T05:17:14;10.00;;;6.83;;
9836;SDS011;4957;51.412;6.724;2023-04-24T05:19:40;11.60;;;6.33;;
9836;SDS011;4957;51.412;6.724;2023-04-24T05:22:06;12.00;;;6.60;;
9836;SDS011;4957;51.412;6.724;2023-04-24T05:24:34;10.03;;;7.33;;
9836;SDS011;4957;51.412;6.724;2023-04-24T05:27:01;10.43;;;7.10;;
9836;SDS011;4957;51.412;6.724;2023-04-24T05:29:28;9.37;;;7.40;;
9836;SDS011;4957;51.412;6.724;2023-04-24T05:31:55;10.10;;;6.87;;
9836;SDS011;4957;51.412;6.724;2023-04-24T05:34:21;10.67;;;7.80;;
9836;SDS011;4957;51.412;6.724;2023-04-24T05:36:47;13.27;;;6.53;;
9836;SDS011;4957;51.412;6.724;2023-04-24T05:39:13;10.10;;;6.67;;
9836;SDS011;4957;51.412;6.724;2023-04-24T05:41:39;9.90;;;7.07;;
9836;SDS011;4957;51.412;6.724;2023-04-24T05:44:05;9.03;;;6.80;;
9836;SDS011;4957;51.412;6.724;2023-04-24T05:46:31;11.63;;;7.23;;
9836;SDS011;4957;51.412;6.724;2023-04-24T05:48:57;11.87;;;7.30;;
9836;SDS011;4957;51.412;6.724;2023-04-24T05:51:23;10.83;;;6.50;;
9836;SDS011;4957;51.412;6.724;2023-04-24T05:53:49;9.53;;;6.57;;
9836;SDS011;4957;51.412;6.724;2023-04-24T05:56:14;9.03;;;6.07;;
9836;SDS011;4957;51.412;6.724;2023-04-24T05:58:41;11.77;;;7.00;;
9836;SDS011;4957;51.412;6.724;2023-04-24T06:01:06;7.73;;;6.20;;
9836;SDS011;4957;51.412;6.724;2023-04-24T06:03:32;14.50;;;6.73;;
9836;SDS011;4957;51.412;6.724;2023-04-24T06:05:58;10.17;;;6.63;;
9836;SDS011;4957;51.412;6.724;2023-04-24T06:08:24;8.43;;;5.93;;
9836;SDS011;4957;51.412;6.724;2023-04-24T06:10:49;9.67;;;6.20;;
9836;SDS011;4957;51.412;6.724;2023-04-24T06:13:15;10.13;;;6.33;;
9836;SDS011;4957;51.412;6.724;2023-04-24T06:15:41;7.97;;;6.17;;
9836;SDS011;4957;51.412;6.724;2023-04-24T06:18:07;9.43;;;6.30;;
9836;SDS011;4957;51.412;6.724;2023-04-24T06:20:35;11.60;;;6.73;;
9836;SDS011;4957;51.412;6.724;2023-04-24T06:23:00;8.53;;;5.07;;
9836;SDS011;4957;51.412;6.724;2023-04-24T06:25:27;7.87;;;5.60;;
9836;SDS011;4957;51.412;6.724;2023-04-24T06:27:53;8.07;;;5.93;;
9836;SDS011;4957;51.412;6.724;2023-04-24T06:30:19;7.33;;;5.37;;
9836;SDS011;4957;51.412;6.724;2023-04-24T06:32:45;10.10;;;5.97;;
9836;SDS011;4957;51.412;6.724;2023-04-24T06:35:11;7.17;;;5.27;;
9836;SDS011;4957;51.412;6.724;2023-04-24T06:37:38;7.40;;;5.40;;
9836;SDS011;4957;51.412;6.724;2023-04-24T06:40:05;6.67;;;4.50;;
9836;SDS011;4957;51.412;6.724;2023-04-24T06:42:31;5.73;;;5.07;;
9836;SDS011;4957;51.412;6.724;2023-04-24T06:44:57;8.80;;;4.83;;
9836;SDS011;4957;51.412;6.724;2023-04-24T06:47:22;6.33;;;4.20;;
9836;SDS011;4957;51.412;6.724;2023-04-24T06:49:48;8.73;;;4.83;;
9836;SDS011;4957;51.412;6.724;2023-04-24T06:52:15;7.03;;;4.87;;
9836;SDS011;4957;51.412;6.724;2023-04-24T06:54:42;6.97;;;4.57;;
9836;SDS011;4957;51.412;6.724;2023-04-24T06:57:08;6.87;;;4.63;;
9836;SDS011;4957;51.412;6.724;2023-04-24T06:59:34;4.93;;;4.30;;
9836;SDS011;4957;51.412;6.724;2023-04-24T07:01:59;7.77;;;4.27;;
9836;SDS011;4957;51.412;6.724;2023-04-24T07:04:25;5.13;;;4.63;;
9836;SDS011;4957;51.412;6.724;2023-04-24T07:06:51;4.43;;;3.70;;
9836;SDS011;4957;51.412;6.724;2023-04-24T07:09:19;5.77;;;4.80;;
9836;SDS011;4957;51.412;6.724;2023-04-24T07:11:45;3.33;;;3.03;;
9836;SDS011;4957;51.412;6.724;2023-04-24T07:14:11;5.13;;;3.43;;
9836;SDS011;4957;51.412;6.724;2023-04-24T07:16:37;5.13;;;1.83;;
9836;SDS011;4957;51.412;6.724;2023-04-24T07:19:03;2.10;;;1.87;;
9836;SDS011;4957;51.412;6.724;2023-04-24T07:21:29;3.47;;;2.40;;
9836;SDS011;4957;51.412;6.724;2023-04-24T07:23:56;2.27;;;2.07;;
9836;SDS011;4957;51.412;6.724;2023-04-24T07:26:22;3.13;;;2.27;;
9836;SDS011;4957;51.412;6.724;2023-04-24T07:28:48;1.50;;;1.40;;
9836;SDS011;4957;51.412;6.724;2023-04-24T07:31:14;1.50;;;1.40;;
9836;SDS011;4957;51.412;6.724;2023-04-24T07:33:40;2.00;;;1.47;;
9836;SDS011;4957;51.412;6.724;2023-04-24T07:36:06;2.17;;;1.90;;
9836;SDS011;4957;51.412;6.724;2023-04-24T07:38:31;3.77;;;3.03;;
9836;SDS011;4957;51.412;6.724;2023-04-24T07:40:57;4.07;;;3.17;;
9836;SDS011;4957;51.412;6.724;2023-04-24T07:43:23;3.40;;;2.43;;
9836;SDS011;4957;51.412;6.724;2023-04-24T07:45:49;3.90;;;2.80;;
9836;SDS011;4957;51.412;6.724;2023-04-24T07:48:16;3.00;;;2.70;;
9836;SDS011;4957;51.412;6.724;2023-04-24T07:50:44;4.53;;;2.90;;
9836;SDS011;4957;51.412;6.724;2023-04-24T07:53:10;3.50;;;2.57;;
9836;SDS011;4957;51.412;6.724;2023-04-24T07:55:35;3.43;;;1.80;;
9836;SDS011;4957;51.412;6.724;2023-04-24T07:58:01;1.57;;;1.47;;
9836;SDS011;4957;51.412;6.724;2023-04-24T08:00:27;1.90;;;1.70;;
9836;SDS011;4957;51.412;6.724;2023-04-24T08:02:53;6.20;;;1.90;;
9836;SDS011;4957;51.412;6.724;2023-04-24T08:05:18;3.50;;;1.50;;
9836;SDS011;4957;51.412;6.724;2023-04-24T08:07:45;2.80;;;1.63;;
9836;SDS011;4957;51.412;6.724;2023-04-24T08:10:13;1.93;;;1.80;;
9836;SDS011;4957;51.412;6.724;2023-04-24T08:12:39;3.07;;;1.60;;
9836;SDS011;4957;51.412;6.724;2023-04-24T08:15:06;5.17;;;2.07;;
9836;SDS011;4957;51.412;6.724;2023-04-24T08:17:32;1.40;;;1.10;;
9836;SDS011;4957;51.412;6.724;2023-04-24T08:19:59;1.30;;;1.20;;
9836;SDS011;4957;51.412;6.724;2023-04-24T08:22:26;1.00;;;1.00;;
9836;SDS011;4957;51.412;6.724;2023-04-24T08:24:53;2.23;;;0.80;;
9836;SDS011;4957;51.412;6.724;2023-04-24T08:27:19;2.90;;;1.00;;
9836;SDS011;4957;51.412;6.724;2023-04-24T08:29:44;0.83;;;0.63;;
9836;SDS011;4957;51.412;6.724;2023-04-24T08:32:10;0.87;;;0.87;;
9836;SDS011;4957;51.412;6.724;2023-04-24T08:34:36;0.97;;;0.90;;
9836;SDS011;4957;51.412;6.724;2023-04-24T08:37:02;0.93;;;0.70;;
9836;SDS011;4957;51.412;6.724;2023-04-24T08:39:28;0.70;;;0.70;;
9836;SDS011;4957;51.412;6.724;2023-04-24T08:41:55;1.80;;;0.73;;
9836;SDS011;4957;51.412;6.724;2023-04-24T08:44:20;1.20;;;1.00;;
9836;SDS011;4957;51.412;6.724;2023-04-24T08:46:47;1.80;;;0.70;;
9836;SDS011;4957;51.412;6.724;2023-04-24T08:49:14;0.80;;;0.80;;
9836;SDS011;4957;51.412;6.724;2023-04-24T08:51:42;1.07;;;0.60;;
9836;SDS011;4957;51.412;6.724;2023-04-24T08:54:10;1.87;;;1.10;;
9836;SDS011;4957;51.412;6.724;2023-04-24T08:56:37;1.60;;;1.10;;
9836;SDS011;4957;51.412;6.724;2023-04-24T08:59:05;1.90;;;1.03;;
9836;SDS011;4957;51.412;6.724;2023-04-24T09:01:32;2.63;;;1.80;;
9836;SDS011;4957;51.412;6.724;2023-04-24T09:04:03;4.53;;;2.33;;
9836;SDS011;4957;51.412;6.724;2023-04-24T09:06:30;2.87;;;2.67;;
9836;SDS011;4957;51.412;6.724;2023-04-24T09:08:57;4.57;;;2.70;;
9836;SDS011;4957;51.412;6.724;2023-04-24T09:11:26;4.30;;;2.57;;
9836;SDS011;4957;51.412;6.724;2023-04-24T09:13:53;5.77;;;3.33;;
9836;SDS011;4957;51.412;6.724;2023-04-24T09:16:20;2.67;;;1.70;;
9836;SDS011;4957;51.412;6.724;2023-04-24T09:18:47;5.53;;;3.43;;
9836;SDS011;4957;51.412;6.724;2023-04-24T09:21:12;3.70;;;3.10;;
9836;SDS011;4957;51.412;6.724;2023-04-24T09:23:38;3.53;;;2.90;;
9836;SDS011;4957;51.412;6.724;2023-04-24T09:26:04;4.83;;;3.30;;
9836;SDS011;4957;51.412;6.724;2023-04-24T09:28:31;3.13;;;2.50;;
9836;SDS011;4957;51.412;6.724;2023-04-24T09:33:53;4.10;;;3.00;;
9836;SDS011;4957;51.412;6.724;2023-04-24T09:36:30;5.27;;;3.00;;
9836;SDS011;4957;51.412;6.724;2023-04-24T09:39:02;5.87;;;3.40;;
9836;SDS011;4957;51.412;6.724;2023-04-24T09:41:31;4.70;;;3.40;;
9836;SDS011;4957;51.412;6.724;2023-04-24T09:43:58;4.97;;;3.83;;
9836;SDS011;4957;51.412;6.724;2023-04-24T09:46:37;5.77;;;3.57;;
9836;SDS011;4957;51.412;6.724;2023-04-24T09:49:10;6.63;;;3.93;;
9836;SDS011;4957;51.412;6.724;2023-04-24T09:51:40;6.23;;;3.50;;
9836;SDS011;4957;51.412;6.724;2023-04-24T09:56:49;4.73;;;3.80;;
9836;SDS011;4957;51.412;6.724;2023-04-24T09:59:17;6.43;;;3.63;;
9836;SDS011;4957;51.412;6.724;2023-04-24T10:01:44;5.20;;;4.20;;
9836;SDS011;4957;51.412;6.724;2023-04-24T10:04:17;7.07;;;3.67;;
9836;SDS011;4957;51.412;6.724;2023-04-24T10:06:43;6.47;;;4.17;;
9836;SDS011;4957;51.412;6.724;2023-04-24T10:09:09;8.57;;;3.47;;
9836;SDS011;4957;51.412;6.724;2023-04-24T10:11:42;4.63;;;2.93;;
9836;SDS011;4957;51.412;6.724;2023-04-24T10:14:17;5.67;;;2.70;;
9836;SDS011;4957;51.412;6.724;2023-04-24T10:16:45;7.80;;;3.27;;
9836;SDS011;4957;51.412;6.724;2023-04-24T10:19:12;5.93;;;2.83;;
9836;SDS011;4957;51.412;6.724;2023-04-24T10:21:40;9.23;;;3.47;;
9836;SDS011;4957;51.412;6.724;2023-04-24T10:24:11;9.10;;;3.70;;
9836;SDS011;4957;51.412;6.724;2023-04-24T10:26:41;9.20;;;3.70;;
9836;SDS011;4957;51.412;6.724;2023-04-24T10:29:07;7.57;;;3.30;;
9836;SDS011;4957;51.412;6.724;2023-04-24T10:31:36;9.57;;;3.43;;
9836;SDS011;4957;51.412;6.724;2023-04-24T10:34:03;2.20;;;1.63;;
9836;SDS011;4957;51.412;6.724;2023-04-24T10:36:30;9.33;;;2.90;;
9836;SDS011;4957;51.412;6.724;2023-04-24T10:38:58;7.33;;;3.63;;
9836;SDS011;4957;51.412;6.724;2023-04-24T10:41:26;8.40;;;2.67;;
9836;SDS011;4957;51.412;6.724;2023-04-24T10:44:04;6.77;;;3.10;;
9836;SDS011;4957;51.412;6.724;2023-04-24T10:46:31;8.90;;;3.30;;
9836;SDS011;4957;51.412;6.724;2023-04-24T10:48:57;8.30;;;2.83;;
9836;SDS011;4957;51.412;6.724;2023-04-24T10:51:24;7.87;;;2.77;;
9836;SDS011;4957;51.412;6.724;2023-04-24T10:54:26;4.43;;;2.90;;
9836;SDS011;4957;51.412;6.724;2023-04-24T10:57:39;8.40;;;3.40;;
9836;SDS011;4957;51.412;6.724;2023-04-24T10:59:45;7.97;;;3.33;;
9836;SDS011;4957;51.412;6.724;2023-04-24T11:02:15;13.93;;;3.67;;
9836;SDS011;4957;51.412;6.724;2023-04-24T11:04:41;9.13;;;3.70;;
9836;SDS011;4957;51.412;6.724;2023-04-24T11:07:08;12.57;;;3.90;;
9836;SDS011;4957;51.412;6.724;2023-04-24T11:09:35;12.93;;;3.97;;
9836;SDS011;4957;51.412;6.724;2023-04-24T11:12:08;5.20;;;2.23;;
9836;SDS011;4957;51.412;6.724;2023-04-24T11:17:36;6.00;;;3.00;;
9836;SDS011;4957;51.412;6.724;2023-04-24T11:20:06;6.50;;;2.83;;
9836;SDS011;4957;51.412;6.724;2023-04-24T11:22:37;7.40;;;3.00;;
9836;SDS011;4957;51.412;6.724;2023-04-24T11:25:07;9.90;;;3.03;;
9836;SDS011;4957;51.412;6.724;2023-04-24T11:27:40;11.97;;;2.53;;
9836;SDS011;4957;51.412;6.724;2023-04-24T11:30:11;8.93;;;2.67;;
9836;SDS011;4957;51.412;6.724;2023-04-24T11:32:41;5.97;;;2.30;;
9836;SDS011;4957;51.412;6.724;2023-04-24T11:37:50;5.40;;;2.70;;
9836;SDS011;4957;51.412;6.724;2023-04-24T11:40:18;7.73;;;2.73;;
9836;SDS011;4957;51.412;6.724;2023-04-24T11:42:49;10.23;;;3.37;;
9836;SDS011;4957;51.412;6.724;2023-04-24T11:45:18;11.20;;;3.07;;
9836;SDS011;4957;51.412;6.724;2023-04-24T11:47:46;8.07;;;2.30;;
9836;SDS011;4957;51.412;6.724;2023-04-24T11:50:13;7.90;;;3.03;;
9836;SDS011;4957;51.412;6.724;2023-04-24T11:52:40;11.03;;;3.30;;
9836;SDS011;4957;51.412;6.724;2023-04-24T11:57:42;8.37;;;2.90;;
9836;SDS011;4957;51.412;6.724;2023-04-24T12:00:18;7.43;;;3.23;;
9836;SDS011;4957;51.412;6.724;2023-04-24T12:02:46;6.97;;;3.10;;
9836;SDS011;4957;51.412;6.724;2023-04-24T12:05:26;5.50;;;3.20;;
9836;SDS011;4957;51.412;6.724;2023-04-24T12:07:52;9.37;;;3.00;;
9836;SDS011;4957;51.412;6.724;2023-04-24T12:10:25;7.10;;;2.30;;
9836;SDS011;4957;51.412;6.724;2023-04-24T12:12:53;4.50;;;2.10;;
9836;SDS011;4957;51.412;6.724;2023-04-24T12:15:20;5.13;;;1.93;;
9836;SDS011;4957;51.412;6.724;2023-04-24T12:17:46;4.90;;;1.77;;
9836;SDS011;4957;51.412;6.724;2023-04-24T12:20:13;5.10;;;1.70;;
9836;SDS011;4957;51.412;6.724;2023-04-24T12:22:52;6.20;;;1.63;;
9836;SDS011;4957;51.412;6.724;2023-04-24T12:25:20;2.20;;;1.70;;
9836;SDS011;4957;51.412;6.724;2023-04-24T12:30:33;6.27;;;1.90;;
9836;SDS011;4957;51.412;6.724;2023-04-24T12:33:00;5.17;;;1.90;;
9836;SDS011;4957;51.412;6.724;2023-04-24T12:35:28;3.23;;;2.03;;
9836;SDS011;4957;51.412;6.724;2023-04-24T12:37:59;3.37;;;1.07;;
9836;SDS011;4957;51.412;6.724;2023-04-24T12:40:31;4.60;;;1.80;;
9836;SDS011;4957;51.412;6.724;2023-04-24T12:42:56;4.83;;;1.60;;
9836;SDS011;4957;51.412;6.724;2023-04-24T12:45:22;3.30;;;1.70;;
9836;SDS011;4957;51.412;6.724;2023-04-24T12:47:50;5.70;;;1.70;;
9836;SDS011;4957;51.412;6.724;2023-04-24T12:50:16;3.10;;;1.37;;
9836;SDS011;4957;51.412;6.724;2023-04-24T12:52:42;3.07;;;1.53;;
9836;SDS011;4957;51.412;6.724;2023-04-24T12:55:08;2.90;;;1.33;;
9836;SDS011;4957;51.412;6.724;2023-04-24T12:57:35;1.40;;;1.07;;
9836;SDS011;4957;51.412;6.724;2023-04-24T13:00:03;5.03;;;1.43;;
9836;SDS011;4957;51.412;6.724;2023-04-24T13:02:30;1.83;;;1.23;;
9836;SDS011;4957;51.412;6.724;2023-04-24T13:04:56;7.00;;;1.13;;
9836;SDS011;4957;51.412;6.724;2023-04-24T13:07:23;2.53;;;1.10;;
9836;SDS011;4957;51.412;6.724;2023-04-24T13:09:50;7.03;;;1.70;;
9836;SDS011;4957;51.412;6.724;2023-04-24T13:12:16;2.03;;;1.40;;
9836;SDS011;4957;51.412;6.724;2023-04-24T13:14:42;5.90;;;1.30;;
9836;SDS011;4957;51.412;6.724;2023-04-24T13:17:08;3.73;;;1.20;;
9836;SDS011;4957;51.412;6.724;2023-04-24T13:19:38;1.23;;;0.80;;
9836;SDS011;4957;51.412;6.724;2023-04-24T13:22:05;3.73;;;1.10;;
9836;SDS011;4957;51.412;6.724;2023-04-24T13:24:31;3.07;;;1.23;;
9836;SDS011;4957;51.412;6.724;2023-04-24T13:26:57;2.97;;;1.30;;
9836;SDS011;4957;51.412;6.724;2023-04-24T13:29:24;4.30;;;1.70;;
9836;SDS011;4957;51.412;6.724;2023-04-24T13:31:51;6.63;;;1.67;;
9836;SDS011;4957;51.412;6.724;2023-04-24T13:34:19;3.30;;;1.20;;
9836;SDS011;4957;51.412;6.724;2023-04-24T13:36:44;4.53;;;1.40;;
9836;SDS011;4957;51.412;6.724;2023-04-24T13:39:10;3.17;;;1.00;;
9836;SDS011;4957;51.412;6.724;2023-04-24T13:41:36;6.30;;;1.20;;
9836;SDS011;4957;51.412;6.724;2023-04-24T13:44:03;1.97;;;1.00;;
9836;SDS011;4957;51.412;6.724;2023-04-24T13:46:29;5.67;;;1.33;;
9836;SDS011;4957;51.412;6.724;2023-04-24T13:48:55;5.97;;;1.47;;
9836;SDS011;4957;51.412;6.724;2023-04-24T13:51:23;4.43;;;1.43;;
9836;SDS011;4957;51.412;6.724;2023-04-24T13:53:52;1.57;;;1.20;;
9836;SDS011;4957;51.412;6.724;2023-04-24T13:56:18;3.43;;;1.10;;
9836;SDS011;4957;51.412;6.724;2023-04-24T13:58:43;2.57;;;0.90;;
9836;SDS011;4957;51.412;6.724;2023-04-24T14:01:09;3.67;;;1.47;;
9836;SDS011;4957;51.412;6.724;2023-04-24T14:03:36;3.03;;;1.63;;
9836;SDS011;4957;51.412;6.724;2023-04-24T14:06:03;1.80;;;1.10;;
9836;SDS011;4957;51.412;6.724;2023-04-24T14:08:28;2.63;;;1.10;;
9836;SDS011;4957;51.412;6.724;2023-04-24T14:10:54;1.83;;;0.90;;
9836;SDS011;4957;51.412;6.724;2023-04-24T14:13:20;3.30;;;0.97;;
9836;SDS011;4957;51.412;6.724;2023-04-24T14:15:46;3.30;;;1.23;;
9836;SDS011;4957;51.412;6.724;2023-04-24T14:18:12;2.27;;;1.23;;
9836;SDS011;4957;51.412;6.724;2023-04-24T14:20:38;1.17;;;0.80;;
9836;SDS011;4957;51.412;6.724;2023-04-24T14:23:03;1.20;;;1.10;;
9836;SDS011;4957;51.412;6.724;2023-04-24T14:25:29;3.53;;;0.93;;
9836;SDS011;4957;51.412;6.724;2023-04-24T14:27:55;1.13;;;1.03;;
9836;SDS011;4957;51.412;6.724;2023-04-24T14:30:21;2.60;;;1.10;;
9836;SDS011;4957;51.412;6.724;2023-04-24T14:32:47;1.00;;;0.90;;
9836;SDS011;4957;51.412;6.724;2023-04-24T14:35:13;1.43;;;1.30;;
9836;SDS011;4957;51.412;6.724;2023-04-24T14:37:39;2.43;;;1.10;;
9836;SDS011;4957;51.412;6.724;2023-04-24T14:40:07;3.37;;;1.20;;
9836;SDS011;4957;51.412;6.724;2023-04-24T14:42:34;2.70;;;0.70;;
9836;SDS011;4957;51.412;6.724;2023-04-24T14:45:00;2.43;;;1.13;;
9836;SDS011;4957;51.412;6.724;2023-04-24T14:47:26;3.17;;;1.17;;
9836;SDS011;4957;51.412;6.724;2023-04-24T14:49:52;2.80;;;1.00;;
9836;SDS011;4957;51.412;6.724;2023-04-24T14:52:18;1.27;;;0.90;;
9836;SDS011;4957;51.412;6.724;2023-04-24T14:54:43;1.17;;;1.07;;
9836;SDS011;4957;51.412;6.724;2023-04-24T14:57:09;2.20;;;1.10;;
9836;SDS011;4957;51.412;6.724;2023-04-24T14:59:35;3.10;;;1.07;;
9836;SDS011;4957;51.412;6.724;2023-04-24T15:02:01;3.20;;;1.00;;
9836;SDS011;4957;51.412;6.724;2023-04-24T15:04:27;1.00;;;0.90;;
9836;SDS011;4957;51.412;6.724;2023-04-24T15:06:53;2.73;;;1.13;;
9836;SDS011;4957;51.412;6.724;2023-04-24T15:09:20;2.70;;;0.93;;
9836;SDS011;4957;51.412;6.724;2023-04-24T15:11:47;2.23;;;1.23;;
9836;SDS011;4957;51.412;6.724;2023-04-24T15:14:13;2.87;;;1.23;;
9836;SDS011;4957;51.412;6.724;2023-04-24T15:16:40;4.27;;;1.20;;
9836;SDS011;4957;51.412;6.724;2023-04-24T15:19:05;1.57;;;1.10;;
9836;SDS011;4957;51.412;6.724;2023-04-24T15:21:31;1.57;;;1.17;;
9836;SDS011;4957;51.412;6.724;2023-04-24T15:23:57;1.00;;;0.90;;
9836;SDS011;4957;51.412;6.724;2023-04-24T15:26:24;1.13;;;1.00;;